Time;durP1;ratioP1;P1;durP2;ratioP2;P2;SDS_P1;SDS_P2;PMS_P1;PMS_P2;Temp;Humidity;BMP_temperature;BMP_pressure;BME280_temperature;BME280_humidity;BME280_pressure;Samples;Min_cycle;Max_cycle;Signal;HPM_P1;HPM_P2
2023/03/21 00:00:17;;;;;;;;;1.00;1.00;;;;;10.23;64.45;100511.78;4998809;28;45607;-77
2023/03/21 00:02:42;;;;;;;;;0.75;0.75;;;;;10.20;64.16;100506.44;4997458;28;46087;-76
2023/03/21 00:05:08;;;;;;;;;1.00;1.00;;;;;10.18;63.85;100505.50;4997837;28;45514;-76
2023/03/21 00:07:33;;;;;;;;;2.50;1.25;;;;;10.16;64.35;100508.06;4998007;28;45462;-75
2023/03/21 00:09:59;;;;;;;;;2.25;1.00;;;;;10.04;64.61;100497.25;4998059;28;45399;-75
2023/03/21 00:12:24;;;;;;;;;1.00;1.00;;;;;10.05;64.86;100507.75;4997400;28;45525;-76
2023/03/21 00:14:52;;;;;;;;;1.00;1.00;;;;;9.99;65.90;100520.59;4998044;28;45399;-76
2023/03/21 00:17:21;;;;;;;;;0.50;0.50;;;;;9.93;65.04;100518.69;4997847;28;45383;-77
2023/03/21 00:19:47;;;;;;;;;0.00;0.00;;;;;9.91;65.71;100522.97;4998399;28;45366;-77
2023/03/21 00:22:13;;;;;;;;;0.00;0.00;;;;;9.87;65.47;100515.88;4995888;28;45568;-76
2023/03/21 00:24:39;;;;;;;;;0.00;0.00;;;;;9.80;65.43;100510.41;4997446;28;45836;-77
2023/03/21 00:27:05;;;;;;;;;0.25;0.00;;;;;9.83;65.92;100515.69;4998190;28;45439;-76
2023/03/21 00:29:30;;;;;;;;;0.00;0.00;;;;;9.79;65.68;100519.97;4997786;28;45388;-77
2023/03/21 00:31:56;;;;;;;;;0.75;0.00;;;;;9.76;65.87;100517.22;4992634;28;47021;-77
2023/03/21 00:34:21;;;;;;;;;0.00;0.00;;;;;9.65;66.29;100503.84;4996055;28;45443;-76
2023/03/21 00:36:47;;;;;;;;;1.00;0.50;;;;;9.65;66.00;100522.13;4993187;28;45393;-77
2023/03/21 00:39:13;;;;;;;;;2.00;1.50;;;;;9.62;66.53;100527.22;4993385;28;45469;-77
2023/03/21 00:41:38;;;;;;;;;1.00;1.00;;;;;9.59;66.50;100516.69;4996210;28;46181;-77
2023/03/21 00:44:04;;;;;;;;;1.00;1.00;;;;;9.54;67.56;100523.47;4995947;28;45441;-77
2023/03/21 00:46:30;;;;;;;;;0.75;0.00;;;;;9.48;67.22;100520.66;4996474;28;45524;-77
2023/03/21 00:48:56;;;;;;;;;6.25;5.25;;;;;9.43;67.91;100527.41;4997387;28;45469;-70
2023/03/21 00:51:25;;;;;;;;;10.00;9.50;;;;;9.29;67.93;100516.50;4996554;28;45341;-74
2023/03/21 00:53:56;;;;;;;;;9.00;7.75;;;;;9.26;68.17;100517.31;4997204;28;45516;-72
2023/03/21 00:56:22;;;;;;;;;3.75;2.00;;;;;9.29;67.50;100519.13;4996470;28;45462;-75
2023/03/21 00:58:47;;;;;;;;;3.00;2.00;;;;;9.27;67.90;100521.69;4997563;28;45364;-77
2023/03/21 01:01:13;;;;;;;;;0.00;0.00;;;;;9.32;67.15;100521.84;4997380;28;45470;-76
2023/03/21 01:03:46;;;;;;;;;1.00;1.00;;;;;9.32;66.90;100517.50;4996869;28;45501;-76
2023/03/21 01:06:12;;;;;;;;;2.00;1.00;;;;;9.20;67.42;100497.97;4996923;28;45514;-76
2023/03/21 01:08:42;;;;;;;;;3.00;3.00;;;;;9.31;67.19;100520.97;4997093;28;45325;-76
2023/03/21 01:11:11;;;;;;;;;2.75;2.00;;;;;9.30;67.07;100523.50;4996937;28;45438;-76
2023/03/21 01:13:37;;;;;;;;;2.25;2.25;;;;;9.21;67.55;100523.19;4996922;28;45536;-76
2023/03/21 01:16:04;;;;;;;;;3.00;2.00;;;;;9.13;67.67;100528.13;4996615;28;45466;-77
2023/03/21 01:18:31;;;;;;;;;1.00;1.00;;;;;9.00;67.10;100526.81;4997154;28;45340;-77
2023/03/21 01:20:59;;;;;;;;;1.00;1.00;;;;;9.05;67.29;100540.91;4996048;28;45385;-77
2023/03/21 01:23:27;;;;;;;;;1.75;1.00;;;;;9.05;67.61;100542.59;4996468;28;45550;-75
2023/03/21 01:25:55;;;;;;;;;2.00;2.00;;;;;9.03;67.66;100539.06;4997303;28;45481;-71
2023/03/21 01:28:21;;;;;;;;;1.00;1.00;;;;;9.05;67.52;100537.38;4996870;28;45484;-72
2023/03/21 01:30:48;;;;;;;;;1.00;1.00;;;;;9.06;67.26;100527.03;4991563;28;47708;-73
2023/03/21 01:33:15;;;;;;;;;1.00;1.00;;;;;9.06;66.62;100529.63;4996288;28;45554;-77
2023/03/21 01:35:41;;;;;;;;;1.00;1.00;;;;;9.04;66.76;100526.09;4996433;28;45460;-77
2023/03/21 01:38:08;;;;;;;;;0.75;0.00;;;;;8.99;67.35;100527.63;4996662;28;45408;-77
2023/03/21 01:40:34;;;;;;;;;1.00;1.00;;;;;8.97;67.25;100524.09;4996547;28;46165;-76
2023/03/21 01:43:00;;;;;;;;;0.00;0.00;;;;;8.95;66.73;100521.44;4996602;28;45369;-76
2023/03/21 01:46:03;;;;;;;;;0.25;0.00;;;;;8.96;66.40;100527.53;4996806;28;45415;-76
2023/03/21 01:48:29;;;;;;;;;1.00;1.00;;;;;8.93;66.99;100523.13;4996601;28;45547;-77
2023/03/21 01:50:55;;;;;;;;;1.00;0.00;;;;;8.90;67.10;100519.50;4996101;28;45359;-74
2023/03/21 01:53:28;;;;;;;;;1.25;1.00;;;;;8.86;67.07;100526.31;4996578;28;45416;-77
2023/03/21 01:56:00;;;;;;;;;1.00;1.00;;;;;8.78;68.27;100522.53;5000529;28;45359;-76
2023/03/21 01:58:26;;;;;;;;;0.00;0.00;;;;;8.71;67.93;100508.41;4999869;28;45495;-76
2023/03/21 02:00:55;;;;;;;;;1.00;1.00;;;;;8.64;68.82;100513.34;5000622;28;46182;-76
2023/03/21 02:03:22;;;;;;;;;0.00;0.00;;;;;8.65;68.15;100525.50;4999867;28;45511;-76
2023/03/21 02:05:53;;;;;;;;;2.50;1.00;;;;;8.58;69.14;100518.31;4999794;28;45435;-76
2023/03/21 02:08:20;;;;;;;;;0.00;0.00;;;;;8.49;69.10;100511.91;5000239;28;45709;-76
2023/03/21 02:10:48;;;;;;;;;0.50;0.50;;;;;8.50;67.85;100511.09;5000044;28;46189;-76
2023/03/21 02:13:14;;;;;;;;;0.25;0.25;;;;;8.51;68.47;100505.03;5000158;28;45506;-76
2023/03/21 02:15:52;;;;;;;;;1.00;1.00;;;;;8.52;68.76;100500.75;5000114;28;45634;-77
2023/03/21 02:18:33;;;;;;;;;0.00;0.00;;;;;8.56;68.29;100494.81;4999967;28;45415;-76
2023/03/21 02:21:21;;;;;;;;;0.00;0.00;;;;;8.50;68.77;100492.00;5000448;28;45376;-76
2023/03/21 02:24:06;;;;;;;;;0.50;0.50;;;;;8.43;68.93;100498.66;4998973;28;45477;-76
2023/03/21 02:26:47;;;;;;;;;1.00;1.00;;;;;8.43;69.51;100496.06;4999779;28;45288;-77
2023/03/21 02:29:35;;;;;;;;;1.00;1.00;;;;;8.44;68.26;100507.38;5000533;28;45372;-77
2023/03/21 02:32:22;;;;;;;;;0.25;0.25;;;;;8.40;68.41;100495.94;4999618;28;45497;-76
2023/03/21 02:34:54;;;;;;;;;0.00;0.00;;;;;8.43;68.41;100511.69;5000138;28;45486;-76
2023/03/21 02:37:34;;;;;;;;;1.00;1.00;;;;;8.42;68.51;100512.53;4999239;28;45294;-75
2023/03/21 02:40:14;;;;;;;;;1.00;1.00;;;;;8.41;68.50;100509.81;5000334;28;45349;-76
2023/03/21 02:42:59;;;;;;;;;0.50;0.50;;;;;8.39;67.95;100520.16;4999755;28;46196;-76
2023/03/21 02:45:30;;;;;;;;;0.25;0.25;;;;;8.38;68.02;100523.63;4999856;28;45581;-76
2023/03/21 02:48:09;;;;;;;;;0.00;0.00;;;;;8.37;67.85;100524.44;4999051;28;45603;-76
2023/03/21 02:50:42;;;;;;;;;0.00;0.00;;;;;8.41;67.94;100525.44;4999919;28;45459;-76
2023/03/21 02:53:11;;;;;;;;;0.00;0.00;;;;;8.37;67.72;100532.25;4999838;28;46345;-76
2023/03/21 02:55:41;;;;;;;;;0.50;0.25;;;;;8.34;68.34;100526.94;4999500;28;45440;-76
2023/03/21 02:58:10;;;;;;;;;0.00;0.00;;;;;8.28;68.52;100534.50;4998608;28;46287;-76
2023/03/21 03:00:38;;;;;;;;;0.25;0.25;;;;;8.33;68.18;100539.03;4999930;28;45349;-77
2023/03/21 03:03:04;;;;;;;;;1.00;1.00;;;;;8.23;68.57;100528.22;4999242;28;46266;-77
2023/03/21 03:05:35;;;;;;;;;0.75;0.00;;;;;8.32;68.36;100549.41;4998455;28;45478;-76
2023/03/21 03:08:25;;;;;;;;;0.00;0.00;;;;;8.33;68.48;100543.38;4999624;28;45449;-76
2023/03/21 03:11:16;;;;;;;;;0.00;0.00;;;;;8.33;68.30;100544.25;4998294;28;45310;-77
2023/03/21 03:13:53;;;;;;;;;0.25;0.25;;;;;8.31;68.17;100534.59;4999451;28;46127;-76
2023/03/21 03:16:27;;;;;;;;;0.00;0.00;;;;;8.27;67.94;100544.00;4999517;28;45638;-76
2023/03/21 03:18:59;;;;;;;;;0.50;0.00;;;;;8.22;68.26;100544.69;4999638;28;45328;-76
2023/03/21 03:21:48;;;;;;;;;0.25;0.00;;;;;8.12;68.28;100535.63;4999026;28;45300;-76
2023/03/21 03:24:24;;;;;;;;;0.00;0.00;;;;;8.12;68.39;100538.22;4999484;28;46325;-76
2023/03/21 03:26:58;;;;;;;;;0.00;0.00;;;;;8.05;69.15;100536.19;4999408;28;45554;-76
2023/03/21 03:29:27;;;;;;;;;0.00;0.00;;;;;8.05;69.12;100536.19;4998272;28;45529;-76
2023/03/21 03:32:07;;;;;;;;;1.00;1.00;;;;;7.91;68.62;100533.91;4998400;28;45713;-76
2023/03/21 03:34:39;;;;;;;;;0.00;0.00;;;;;7.87;68.63;100541.53;4998902;28;45367;-76
2023/03/21 03:37:10;;;;;;;;;0.00;0.00;;;;;7.76;69.21;100529.00;4999223;28;45395;-76
2023/03/21 03:39:48;;;;;;;;;0.00;0.00;;;;;7.79;69.34;100540.34;4999460;28;45947;-76
2023/03/21 03:42:19;;;;;;;;;0.00;0.00;;;;;7.76;69.17;100531.59;4998571;28;45451;-76
2023/03/21 03:44:45;;;;;;;;;0.00;0.00;;;;;7.80;69.72;100539.50;4998431;28;45575;-76
2023/03/21 03:47:19;;;;;;;;;1.00;1.00;;;;;7.79;69.19;100543.81;4997087;28;45572;-76
2023/03/21 03:49:59;;;;;;;;;0.00;0.00;;;;;7.76;69.11;100528.13;4999093;28;45546;-77
2023/03/21 03:52:41;;;;;;;;;1.75;1.00;;;;;7.84;68.90;100539.72;4994301;28;45466;-77
2023/03/21 03:55:10;;;;;;;;;2.00;1.75;;;;;7.85;69.87;100543.19;4979202;28;46432;-69
2023/03/21 03:57:36;;;;;;;;;3.00;2.00;;;;;7.87;69.46;100550.22;4979269;28;45384;-76
2023/03/21 04:00:08;;;;;;;;;1.00;1.00;;;;;7.88;69.61;100551.13;4979331;28;45574;-75
2023/03/21 04:02:33;;;;;;;;;1.00;1.00;;;;;7.82;69.70;100549.16;4979435;28;45318;-76
2023/03/21 04:04:59;;;;;;;;;0.00;0.00;;;;;7.80;69.76;100563.81;4991359;28;46105;-76
2023/03/21 04:07:26;;;;;;;;;0.00;0.00;;;;;7.81;69.77;100560.38;4998912;28;45440;-76
2023/03/21 04:09:52;;;;;;;;;2.00;2.00;;;;;7.86;69.41;100564.06;4998426;28;45562;-76
2023/03/21 04:12:18;;;;;;;;;2.00;2.00;;;;;7.91;69.32;100570.31;4998596;28;45244;-77
2023/03/21 04:14:43;;;;;;;;;2.00;1.25;;;;;7.94;69.12;100580.00;4997415;28;46168;-77
2023/03/21 04:17:10;;;;;;;;;1.00;1.00;;;;;7.90;69.35;100575.50;4996803;28;45459;-76
2023/03/21 04:19:35;;;;;;;;;0.00;0.00;;;;;7.84;68.76;100565.72;4998567;28;45438;-75
2023/03/21 04:22:01;;;;;;;;;0.00;0.00;;;;;7.83;69.16;100569.13;4998825;28;45364;-76
2023/03/21 04:24:27;;;;;;;;;1.00;0.00;;;;;7.90;68.83;100585.91;4998296;28;45887;-75
2023/03/21 04:26:52;;;;;;;;;0.00;0.00;;;;;7.90;69.41;100599.78;4997894;28;45471;-76
2023/03/21 04:29:19;;;;;;;;;0.50;0.50;;;;;7.91;68.94;100591.13;4998254;28;45514;-76
2023/03/21 04:31:44;;;;;;;;;0.00;0.00;;;;;7.85;68.93;100575.28;4998286;28;45272;-76
2023/03/21 04:34:11;;;;;;;;;1.00;0.00;;;;;7.92;68.86;100587.72;4998155;28;46041;-76
2023/03/21 04:36:46;;;;;;;;;0.00;0.00;;;;;7.91;69.18;100591.13;4997981;28;45400;-76
2023/03/21 04:39:13;;;;;;;;;0.75;0.75;;;;;7.87;68.90;100603.97;4998337;28;45304;-76
2023/03/21 04:41:43;;;;;;;;;1.00;1.00;;;;;7.70;69.08;100588.56;4998199;28;45342;-76
2023/03/21 04:44:10;;;;;;;;;3.25;3.25;;;;;7.69;69.37;100598.88;4997672;28;45370;-76
2023/03/21 04:46:37;;;;;;;;;3.50;3.00;;;;;7.64;69.79;100600.38;4998028;28;45411;-76
2023/03/21 04:49:03;;;;;;;;;1.00;1.00;;;;;7.61;69.46;100615.88;4997198;28;45419;-76
2023/03/21 04:51:29;;;;;;;;;1.00;1.00;;;;;7.57;70.01;100615.72;4998181;28;45443;-76
2023/03/21 04:53:58;;;;;;;;;0.25;0.25;;;;;7.56;70.19;100613.97;4997958;28;45525;-76
2023/03/21 04:56:31;;;;;;;;;1.00;0.25;;;;;7.58;70.00;100619.25;4997949;28;45473;-77
2023/03/21 04:59:02;;;;;;;;;0.00;0.00;;;;;7.63;70.67;100619.41;4997215;28;45293;-75
2023/03/21 05:01:31;;;;;;;;;0.00;0.00;;;;;7.59;69.84;100610.59;4998238;28;45503;-76
2023/03/21 05:04:01;;;;;;;;;1.00;1.00;;;;;7.62;70.34;100613.34;4997228;28;46196;-75
2023/03/21 05:06:27;;;;;;;;;1.25;1.25;;;;;7.70;69.67;100617.16;4998130;28;45364;-75
2023/03/21 05:08:58;;;;;;;;;1.00;1.00;;;;;7.73;69.41;100617.25;4997866;28;45329;-76
2023/03/21 05:11:26;;;;;;;;;1.50;1.00;;;;;7.72;69.88;100620.72;4995599;28;45442;-76
2023/03/21 05:13:51;;;;;;;;;0.50;0.00;;;;;7.69;69.29;100624.88;4996269;28;45435;-76
2023/03/21 05:16:17;;;;;;;;;2.00;1.00;;;;;7.74;69.39;100634.66;4997228;28;45509;-76
2023/03/21 05:18:42;;;;;;;;;1.00;1.00;;;;;7.64;69.46;100616.91;4996344;28;45524;-76
2023/03/21 05:21:09;;;;;;;;;1.00;1.00;;;;;7.76;68.83;100639.94;4997020;28;45397;-73
2023/03/21 05:23:39;;;;;;;;;4.00;4.00;;;;;7.77;68.83;100631.28;4997189;28;45567;-76
2023/03/21 05:26:09;;;;;;;;;4.00;4.00;;;;;7.68;68.79;100616.19;4997888;28;45222;-76
2023/03/21 05:28:35;;;;;;;;;3.00;3.00;;;;;7.74;68.79;100632.06;4995306;28;45360;-77
2023/03/21 05:31:04;;;;;;;;;1.75;1.75;;;;;7.74;68.50;100632.06;4996827;28;45301;-76
2023/03/21 05:33:30;;;;;;;;;2.00;2.00;;;;;7.74;68.84;100639.88;4997090;28;46018;-75
2023/03/21 05:35:55;;;;;;;;;2.00;1.50;;;;;7.70;69.37;100643.16;4996087;28;45284;-77
2023/03/21 05:38:21;;;;;;;;;2.00;1.00;;;;;7.69;69.50;100640.47;4997630;28;45425;-76
2023/03/21 05:40:48;;;;;;;;;1.00;1.00;;;;;7.62;69.58;100648.81;4997467;28;45730;-74
2023/03/21 05:43:13;;;;;;;;;1.00;0.00;;;;;7.60;70.33;100647.88;4996900;28;46506;-77
2023/03/21 05:45:39;;;;;;;;;2.00;1.00;;;;;7.59;69.63;100641.78;4997140;28;45534;-76
2023/03/21 05:48:05;;;;;;;;;1.00;1.00;;;;;7.62;69.97;100633.22;4997584;28;45410;-77
2023/03/21 05:50:31;;;;;;;;;1.50;1.00;;;;;7.62;69.94;100636.75;4997634;28;45295;-77
2023/03/21 05:52:56;;;;;;;;;1.75;1.00;;;;;7.62;70.13;100635.81;4995214;28;46460;-76
2023/03/21 05:55:22;;;;;;;;;2.00;2.00;;;;;7.61;70.39;100624.56;4996510;28;45324;-76
2023/03/21 05:57:47;;;;;;;;;3.00;3.00;;;;;7.57;70.94;100631.31;4996890;28;45447;-77
2023/03/21 06:00:13;;;;;;;;;1.25;1.00;;;;;7.45;70.85;100625.59;4996779;28;45173;-76
2023/03/21 06:02:39;;;;;;;;;3.75;3.00;;;;;7.46;71.34;100634.28;4997365;28;45284;-74
2023/03/21 06:05:05;;;;;;;;;1.25;1.00;;;;;7.34;71.10;100622.53;4996369;28;45562;-76
2023/03/21 06:07:32;;;;;;;;;2.25;2.25;;;;;7.43;70.76;100637.63;4995663;28;45498;-77
2023/03/21 06:09:57;;;;;;;;;3.00;3.00;;;;;7.35;71.02;100629.50;4997127;28;45357;-77
2023/03/21 06:12:23;;;;;;;;;2.75;2.00;;;;;7.37;70.80;100617.47;5011665;28;46447;-77
2023/03/21 06:14:49;;;;;;;;;3.00;2.00;;;;;7.43;70.53;100621.16;4994543;28;45424;-75
2023/03/21 06:17:14;;;;;;;;;3.00;3.00;;;;;7.47;70.73;100620.47;4986196;28;45426;-73
2023/03/21 06:19:40;;;;;;;;;4.25;3.00;;;;;7.56;70.91;100629.56;4994907;28;45472;-75
2023/03/21 06:22:06;;;;;;;;;8.00;7.00;;;;;7.54;70.72;100615.59;4994784;28;45525;-75
2023/03/21 06:24:31;;;;;;;;;2.50;2.50;;;;;7.62;70.79;100635.81;4994998;28;45494;-76
2023/03/21 06:26:57;;;;;;;;;7.00;7.00;;;;;7.59;70.70;100634.00;4994354;28;45563;-76
2023/03/21 06:29:22;;;;;;;;;3.50;3.00;;;;;7.61;70.12;100627.16;4992084;28;45436;-76
2023/03/21 06:31:48;;;;;;;;;2.00;2.00;;;;;7.64;71.08;100629.91;4993271;28;47872;-76
2023/03/21 06:34:14;;;;;;;;;2.75;2.00;;;;;7.64;70.86;100616.91;4994787;28;45619;-71
2023/03/21 06:36:43;;;;;;;;;3.00;2.00;;;;;7.75;70.61;100632.94;4995276;28;45502;-70
2023/03/21 06:39:09;;;;;;;;;1.50;1.50;;;;;7.80;70.57;100630.53;4994479;28;45431;-73
2023/03/21 06:41:35;;;;;;;;;1.25;1.25;;;;;7.79;70.28;100619.25;4997743;28;46811;-73
2023/03/21 06:44:01;;;;;;;;;2.25;2.00;;;;;7.93;70.03;100632.84;4997741;28;45498;-74
2023/03/21 06:46:26;;;;;;;;;3.00;2.00;;;;;8.10;70.03;100642.22;4997994;28;45545;-76
2023/03/21 06:48:52;;;;;;;;;18.75;17.75;;;;;8.26;69.52;100635.06;4997725;28;45537;-72
2023/03/21 06:51:18;;;;;;;;;14.75;14.00;;;;;8.44;68.73;100634.94;4997753;28;45914;-76
2023/03/21 06:53:43;;;;;;;;;34.50;33.75;;;;;8.46;68.60;100618.56;4996692;28;45323;-76
2023/03/21 06:56:11;;;;;;;;;21.50;20.25;;;;;8.75;67.96;100637.03;4996632;28;45476;-72
2023/03/21 06:58:37;;;;;;;;;40.00;34.75;;;;;8.92;68.01;100637.69;4998106;28;45468;-75
2023/03/21 07:01:04;;;;;;;;;21.75;21.00;;;;;9.19;66.59;100648.25;4997191;28;46139;-76
2023/03/21 07:03:30;;;;;;;;;7.50;7.00;;;;;9.42;66.24;100630.84;4996495;28;46097;-76
2023/03/21 07:05:56;;;;;;;;;8.00;7.75;;;;;9.67;65.44;100630.00;4997854;28;45495;-76
2023/03/21 07:08:22;;;;;;;;;8.25;8.00;;;;;9.94;65.25;100640.47;4998193;28;45511;-75
2023/03/21 07:10:48;;;;;;;;;10.00;9.50;;;;;10.27;64.49;100642.44;4998186;28;45433;-76
2023/03/21 07:13:15;;;;;;;;;9.25;6.50;;;;;11.65;61.48;100630.00;4998534;28;45593;-75
2023/03/21 07:15:41;;;;;;;;;8.25;5.50;;;;;12.93;58.87;100641.91;4998586;28;45430;-73
2023/03/21 07:18:08;;;;;;;;;21.00;19.00;;;;;14.67;52.52;100629.34;4999043;28;45388;-77
2023/03/21 07:20:36;;;;;;;;;5.75;5.00;;;;;15.96;51.00;100621.25;4997885;28;45710;-77
2023/03/21 07:23:03;;;;;;;;;4.00;4.00;;;;;16.64;46.54;100614.75;4998294;28;45387;-77
2023/03/21 07:25:29;;;;;;;;;2.25;2.00;;;;;16.89;47.83;100616.69;4998543;28;45373;-77
2023/03/21 07:27:55;;;;;;;;;7.75;7.00;;;;;16.08;49.02;100626.63;4998571;28;45461;-76
2023/03/21 07:30:20;;;;;;;;;4.75;4.50;;;;;15.31;50.07;100624.03;4999292;28;45451;-76
2023/03/21 07:32:46;;;;;;;;;6.25;5.00;;;;;14.65;50.65;100627.56;4998175;28;45523;-70
2023/03/21 07:35:14;;;;;;;;;4.25;3.00;;;;;14.53;52.63;100634.38;4999704;28;45340;-71
2023/03/21 07:37:41;;;;;;;;;0.00;0.00;;;;;14.33;52.89;100641.94;5002788;28;45484;-69
2023/03/21 07:40:11;;;;;;;;;3.00;3.00;;;;;14.20;51.51;100644.34;5009418;28;46106;-69
2023/03/21 07:42:38;;;;;;;;;2.75;1.75;;;;;13.98;52.54;100636.09;5003151;28;45531;-69
2023/03/21 07:45:04;;;;;;;;;2.75;2.75;;;;;14.16;51.98;100647.78;5004869;28;45489;-70
2023/03/21 07:47:31;;;;;;;;;4.00;4.00;;;;;14.40;51.07;100649.91;5007348;28;45471;-71
2023/03/21 07:49:57;;;;;;;;;4.50;3.25;;;;;14.51;50.39;100646.59;4998110;28;45514;-73
2023/03/21 07:52:23;;;;;;;;;4.25;4.00;;;;;14.44;50.95;100634.25;5005874;28;45383;-74
2023/03/21 07:54:49;;;;;;;;;8.50;6.00;;;;;14.87;51.20;100653.31;5004650;28;45518;-76
2023/03/21 07:57:15;;;;;;;;;2.25;2.00;;;;;15.36;50.81;100646.91;4998482;28;45412;-76
2023/03/21 07:59:40;;;;;;;;;8.00;7.75;;;;;15.89;49.57;100654.53;5007019;28;46066;-74
2023/03/21 08:02:06;;;;;;;;;8.25;7.75;;;;;16.20;48.40;100642.53;4999236;28;45463;-75
2023/03/21 08:04:33;;;;;;;;;22.00;20.00;;;;;16.89;47.14;100672.09;4998089;28;45479;-69
2023/03/21 08:06:59;;;;;;;;;12.00;11.00;;;;;16.97;46.69;100671.25;4997453;28;45429;-71
2023/03/21 08:09:24;;;;;;;;;8.25;7.50;;;;;16.98;48.00;100675.66;4997360;28;45371;-69
2023/03/21 08:11:50;;;;;;;;;14.25;14.25;;;;;17.29;47.07;100688.16;4996857;28;45430;-70
2023/03/21 08:14:15;;;;;;;;;72.50;59.00;;;;;17.82;46.32;100686.56;4996218;28;45852;-69
2023/03/21 08:16:41;;;;;;;;;7.00;7.00;;;;;18.17;44.90;100677.84;4996621;28;45563;-69
2023/03/21 08:19:06;;;;;;;;;5.00;4.67;;;;;18.49;45.37;100691.06;4987482;28;46945;-80
2023/03/21 08:21:32;;;;;;;;;17.00;14.75;;;;;18.40;43.79;100685.81;4995267;28;45546;-80
2023/03/21 08:23:57;;;;;;;;;6.25;4.25;;;;;18.67;43.76;100674.31;4996970;28;45415;-81
2023/03/21 08:26:25;;;;;;;;;5.00;5.00;;;;;18.86;43.11;100677.84;4997283;28;45977;-81
2023/03/21 08:28:50;;;;;;;;;2.33;2.33;;;;;18.71;43.20;100684.91;4997593;28;45380;-81
2023/03/21 08:31:17;;;;;;;;;3.00;3.00;;;;;18.53;43.61;100680.50;4996698;28;45912;-80
2023/03/21 08:33:42;;;;;;;;;2.33;2.33;;;;;18.36;44.14;100683.13;4998288;28;45656;-81
2023/03/21 08:36:09;;;;;;;;;6.00;6.00;;;;;18.27;45.26;100681.38;4997031;28;45312;-81
2023/03/21 08:38:35;;;;;;;;;4.00;3.33;;;;;18.21;45.62;100678.75;4996739;28;45328;-81
2023/03/21 08:41:01;;;;;;;;;3.00;3.00;;;;;18.31;46.13;100677.00;4995710;28;45362;-82
2023/03/21 08:43:27;;;;;;;;;3.33;2.67;;;;;18.67;45.45;100689.31;4997477;28;45439;-81
2023/03/21 08:45:53;;;;;;;;;4.33;3.33;;;;;19.09;44.94;100668.97;4995842;28;45657;-81
2023/03/21 08:48:19;;;;;;;;;4.00;4.00;;;;;19.22;44.55;100664.53;4997486;28;46184;-81
2023/03/21 08:50:45;;;;;;;;;2.00;2.00;;;;;19.41;44.12;100665.31;4997077;28;45851;-70
2023/03/21 08:53:11;;;;;;;;;2.00;2.00;;;;;19.47;43.42;100678.53;5012917;28;45347;-69
2023/03/21 08:55:36;;;;;;;;;3.00;3.00;;;;;19.55;43.25;100678.50;4997199;28;45462;-69
2023/03/21 08:58:02;;;;;;;;;2.00;2.00;;;;;19.85;43.44;100685.44;4996518;28;45903;-69
2023/03/21 09:00:28;;;;;;;;;2.67;2.67;;;;;20.51;42.69;100687.59;4997526;28;45467;-70
2023/03/21 09:02:57;;;;;;;;;4.00;4.00;;;;;20.81;41.94;100681.19;4996792;28;45373;-70
2023/03/21 09:05:24;;;;;;;;;5.33;4.00;;;;;21.09;40.15;100686.19;4997174;28;45465;-81
2023/03/21 09:07:51;;;;;;;;;5.00;4.67;;;;;22.23;39.28;100685.56;4997300;28;46059;-81
2023/03/21 09:10:20;;;;;;;;;4.00;3.33;;;;;23.41;38.01;100677.22;4996212;28;45420;-80
2023/03/21 09:12:46;;;;;;;;;3.00;3.00;;;;;24.01;37.49;100654.63;4997380;28;45629;-82
2023/03/21 09:15:13;;;;;;;;;4.33;3.00;;;;;25.27;34.97;100653.13;4997376;28;45506;-82
2023/03/21 09:17:43;;;;;;;;;5.00;4.00;;;;;25.97;33.78;100663.50;4996944;28;45514;-82
2023/03/21 09:20:20;;;;;;;;;4.33;4.33;;;;;26.18;33.53;100666.38;4995882;28;45514;-82
2023/03/21 09:22:51;;;;;;;;;5.00;5.00;;;;;25.05;34.29;100668.88;4996367;28;45459;-80
2023/03/21 09:25:17;;;;;;;;;6.33;5.33;;;;;24.64;35.63;100659.31;4995768;28;45502;-82
2023/03/21 09:27:44;;;;;;;;;5.00;5.00;;;;;24.71;36.54;100663.56;4996629;28;46004;-81
2023/03/21 09:30:15;;;;;;;;;7.00;6.00;;;;;25.11;36.48;100649.09;4995881;28;45565;-80
2023/03/21 09:32:41;;;;;;;;;7.00;7.00;;;;;25.85;34.39;100646.94;4985033;28;45416;-80
2023/03/21 09:35:07;;;;;;;;;8.00;7.00;;;;;26.56;33.51;100653.50;4995547;28;45466;-80
2023/03/21 09:37:37;;;;;;;;;8.67;7.00;;;;;27.16;32.71;100654.97;4995342;28;46113;-83
2023/03/21 09:40:06;;;;;;;;;9.67;9.00;;;;;27.65;32.46;100646.00;4997325;28;45433;-83
2023/03/21 09:43:11;;;;;;;;;6.00;6.00;;;;;27.69;31.12;100644.94;4997251;28;45461;-83
2023/03/21 09:45:51;;;;;;;;;5.33;5.00;;;;;27.73;32.09;100641.19;4997451;28;45915;-83
2023/03/21 09:48:45;;;;;;;;;3.33;3.00;;;;;27.19;31.12;100644.09;4997323;28;45451;-83
2023/03/21 09:51:16;;;;;;;;;6.00;6.00;;;;;26.84;32.73;100636.47;4982392;28;45440;-83
2023/03/21 09:53:47;;;;;;;;;4.00;4.00;;;;;26.50;32.21;100643.91;4996655;28;45646;-83
2023/03/21 09:56:14;;;;;;;;;5.33;5.00;;;;;26.59;32.65;100643.59;4997165;28;45178;-83
2023/03/21 09:58:51;;;;;;;;;4.00;4.00;;;;;26.56;32.75;100649.03;4996238;28;45979;-84
2023/03/21 10:01:31;;;;;;;;;4.00;3.67;;;;;26.61;32.75;100648.91;4995924;28;45494;-83
2023/03/21 10:04:02;;;;;;;;;6.33;5.33;;;;;26.44;33.38;100638.75;4995545;28;45370;-84
2023/03/21 10:06:29;;;;;;;;;2.00;2.00;;;;;25.78;34.20;100655.16;4996792;28;45440;-84
2023/03/21 10:09:22;;;;;;;;;4.67;4.33;;;;;25.65;35.10;100651.09;4998644;28;45529;-81
2023/03/21 10:12:13;;;;;;;;;7.00;6.00;;;;;25.93;33.57;100667.19;4996543;28;45464;-83
2023/03/21 10:14:44;;;;;;;;;3.67;3.00;;;;;25.98;34.65;100672.38;4978147;28;45246;-83
2023/03/21 10:17:37;;;;;;;;;4.67;4.33;;;;;26.40;33.46;100671.91;4980474;28;45524;-84
2023/03/21 10:20:47;;;;;;;;;4.67;4.67;;;;;26.29;34.01;100674.09;4995613;28;45488;-79
2023/03/21 10:23:15;;;;;;;;;6.00;4.00;;;;;26.58;34.15;100678.47;4976241;28;45562;-84
2023/03/21 10:25:57;;;;;;;;;4.67;4.67;;;;;26.53;33.80;100667.03;4999685;28;45431;-83
2023/03/21 10:28:29;;;;;;;;;4.00;4.00;;;;;26.54;33.86;100685.72;4984368;28;45274;-83
2023/03/21 10:30:57;;;;;;;;;4.33;4.00;;;;;26.50;33.24;100678.72;4994727;28;47013;-82
2023/03/21 10:33:26;;;;;;;;;5.00;4.67;;;;;26.37;33.22;100677.38;4992641;28;45463;-83
2023/03/21 10:36:26;;;;;;;;;3.00;3.00;;;;;26.14;32.86;100665.66;4999375;28;45351;-82
2023/03/21 10:38:55;;;;;;;;;4.00;4.00;;;;;25.85;33.57;100679.91;4998535;28;45442;-83
2023/03/21 10:41:21;;;;;;;;;6.00;4.67;;;;;25.60;33.89;100678.00;4999648;28;46178;-80
2023/03/21 10:44:06;;;;;;;;;4.00;3.33;;;;;25.64;34.48;100685.91;4999317;28;45362;-78
2023/03/21 10:46:32;;;;;;;;;4.00;3.67;;;;;25.98;34.50;100677.75;4999438;28;45450;-83
2023/03/21 10:48:58;;;;;;;;;4.00;4.00;;;;;26.56;34.05;100678.50;4999627;28;45419;-83
2023/03/21 10:51:34;;;;;;;;;3.00;3.00;;;;;26.73;33.09;100695.84;4999557;28;45433;-78
2023/03/21 10:54:13;;;;;;;;;3.67;3.67;;;;;26.29;33.40;100690.16;4998636;28;45374;-82
2023/03/21 10:56:46;;;;;;;;;5.00;4.67;;;;;26.17;34.12;100678.91;4998572;28;45357;-77
2023/03/21 10:59:19;;;;;;;;;6.33;6.00;;;;;25.96;34.39;100676.91;4999483;28;45422;-83
2023/03/21 11:01:51;;;;;;;;;5.67;5.00;;;;;26.02;34.58;100686.56;4998546;28;45289;-81
2023/03/21 11:04:24;;;;;;;;;4.00;4.00;;;;;25.77;34.70;100652.53;4999211;28;45395;-83
2023/03/21 11:06:53;;;;;;;;;7.33;5.33;;;;;25.55;35.34;100690.63;4995099;28;45536;-82
2023/03/21 11:09:23;;;;;;;;;5.33;5.33;;;;;25.53;35.87;100688.94;4989493;28;45407;-80
2023/03/21 11:12:13;;;;;;;;;5.67;4.67;;;;;25.70;35.89;100691.94;4998934;28;45197;-83
2023/03/21 11:14:41;;;;;;;;;3.00;3.00;;;;;25.32;35.40;100693.09;4983932;28;45522;-78
2023/03/21 11:17:16;;;;;;;;;6.33;6.33;;;;;24.85;35.89;100696.16;4997992;28;45557;-80
2023/03/21 11:19:48;;;;;;;;;4.00;4.00;;;;;24.51;36.47;100690.78;4993568;28;45528;-82
2023/03/21 11:22:14;;;;;;;;;4.33;4.33;;;;;24.09;36.73;100691.75;4996370;28;46038;-80
2023/03/21 11:24:44;;;;;;;;;6.67;6.67;;;;;23.77;37.80;100690.72;4990948;28;45471;-79
2023/03/21 11:27:10;;;;;;;;;5.33;4.67;;;;;23.54;38.60;100691.19;4997316;28;45452;-79
2023/03/21 11:29:39;;;;;;;;;5.00;5.00;;;;;23.59;38.90;100683.97;4998865;28;45610;-81
2023/03/21 11:32:34;;;;;;;;;6.00;6.00;;;;;23.81;38.70;100699.53;4997507;28;46298;-81
2023/03/21 11:35:12;;;;;;;;;8.00;6.00;;;;;23.59;38.68;100691.97;4998055;28;45455;-81
2023/03/21 11:37:46;;;;;;;;;5.00;5.00;;;;;23.72;38.72;100710.41;5006729;28;45269;-80
2023/03/21 11:40:27;;;;;;;;;5.00;5.00;;;;;23.50;39.84;100705.50;5016063;28;45582;-80